Christiansburg, Virginia
Current Conditions -  °F | °C
As of 9:15 AM on Thursday 29 Jan 2015 (Local Time) from KBCB Reporting Station
Clear Clear  
Wind Chill: 27°   Ceiling: Unl
Heat Index: 32°   Visibility: 10mi
Dew Point: 18°   Wind: 5mph
Humidity: 57%   Direction: 120°ESE
Pressure: 30.22"   Gusts: NA
Location:  37.13°N, 80.41°W
Report Text: KBCB 291415Z AUTO 12004KT 10SM CLR 00/M08 A3022 RMK AO2 T10011076
Loading
Personal Weather Stations






























Interactive Weather Map New forecast layout! Learn more

10-Day Weather Forecast

Advertisements
Track Severe Weather on mobile